createdAt,value
2023-03-12T00:01:19.614Z,7.05
2023-03-12T00:03:46.894Z,6.30
2023-03-12T00:06:13.874Z,7.10
2023-03-12T00:08:40.720Z,9.63
2023-03-12T00:11:15.210Z,7.93
2023-03-12T00:13:41.847Z,9.98
2023-03-12T00:16:13.701Z,9.40
2023-03-12T00:18:43.204Z,7.80
2023-03-12T00:21:10.571Z,9.63
2023-03-12T00:23:37.160Z,8.52
2023-03-12T00:26:10.773Z,8.57
2023-03-12T00:28:38.506Z,10.10
2023-03-12T00:31:17.087Z,6.05
2023-03-12T00:33:44.094Z,8.13
2023-03-12T00:36:10.940Z,6.03
2023-03-12T00:38:37.932Z,8.10
2023-03-12T00:41:07.086Z,6.83
2023-03-12T00:43:33.953Z,6.70
2023-03-12T00:46:00.702Z,7.28
2023-03-12T00:48:27.221Z,6.45
2023-03-12T00:50:53.832Z,7.78
2023-03-12T00:53:20.850Z,8.63
2023-03-12T00:55:47.432Z,7.88
2023-03-12T00:58:16.682Z,8.38
2023-03-12T01:00:43.177Z,6.75
2023-03-12T01:03:09.620Z,7.30
2023-03-12T01:05:37.820Z,7.57
2023-03-12T01:08:05.340Z,9.63
2023-03-12T01:10:33.786Z,7.53
2023-03-12T01:13:00.389Z,10.88
2023-03-12T01:15:27.285Z,7.07
2023-03-12T01:17:53.746Z,9.33
2023-03-12T01:20:20.303Z,9.35
2023-03-12T01:22:46.731Z,8.48
2023-03-12T01:25:13.297Z,11.45
2023-03-12T01:27:39.920Z,12.75
2023-03-12T01:30:06.997Z,11.43
2023-03-12T01:32:33.783Z,12.38
2023-03-12T01:35:00.571Z,13.88
2023-03-12T01:37:28.285Z,12.32
2023-03-12T01:39:54.766Z,11.00
2023-03-12T01:42:21.244Z,11.30
2023-03-12T01:44:55.281Z,14.55
2023-03-12T01:47:21.937Z,11.68
2023-03-12T01:49:50.017Z,12.48
2023-03-12T01:52:21.909Z,10.80
2023-03-12T01:54:57.434Z,10.47
2023-03-12T01:57:38.027Z,10.25
2023-03-12T02:00:11.859Z,10.50
2023-03-12T02:02:40.034Z,9.77
2023-03-12T02:05:13.408Z,11.05
2023-03-12T02:07:39.910Z,9.33
2023-03-12T02:10:06.595Z,9.48
2023-03-12T02:12:33.017Z,10.10
2023-03-12T02:14:59.884Z,11.20
2023-03-12T02:17:26.436Z,10.15
2023-03-12T02:20:19.735Z,9.33
2023-03-12T02:23:09.117Z,10.60
2023-03-12T02:25:47.650Z,8.38
2023-03-12T02:28:16.389Z,6.45
2023-03-12T02:30:46.707Z,8.85
2023-03-12T02:33:15.300Z,8.30
2023-03-12T02:35:42.814Z,8.55
2023-03-12T02:38:47.249Z,6.90
2023-03-12T02:41:24.762Z,10.13
2023-03-12T02:44:02.736Z,7.75
2023-03-12T02:46:33.573Z,9.00
2023-03-12T02:49:02.160Z,9.80
2023-03-12T02:51:28.597Z,7.88
2023-03-12T02:53:55.096Z,7.38
2023-03-12T02:56:26.686Z,8.85
2023-03-12T02:58:53.817Z,9.93
2023-03-12T03:01:20.972Z,10.35
2023-03-12T03:03:48.087Z,9.02
2023-03-12T03:06:14.865Z,11.88
2023-03-12T03:08:41.424Z,10.23
2023-03-12T03:11:07.915Z,9.47
2023-03-12T03:13:34.968Z,9.25
2023-03-12T03:16:01.989Z,8.55
2023-03-12T03:18:29.967Z,10.63
2023-03-12T03:21:02.143Z,10.60
2023-03-12T03:23:29.172Z,10.23
2023-03-12T03:25:55.829Z,8.95
2023-03-12T03:28:24.562Z,10.90
2023-03-12T03:30:58.197Z,8.85
2023-03-12T03:33:25.017Z,8.85
2023-03-12T03:35:51.509Z,13.00
2023-03-12T03:38:18.070Z,10.65
2023-03-12T03:40:44.466Z,9.10
2023-03-12T03:43:10.928Z,9.20
2023-03-12T03:45:37.485Z,10.15
2023-03-12T03:48:04.194Z,10.80
2023-03-12T03:50:30.826Z,9.75
2023-03-12T03:52:57.278Z,9.63
2023-03-12T03:55:23.807Z,10.45
2023-03-12T03:57:53.003Z,14.63
2023-03-12T04:00:19.710Z,11.50
2023-03-12T04:02:46.145Z,12.52
2023-03-12T04:05:12.595Z,11.32
2023-03-12T04:07:39.035Z,10.88
2023-03-12T04:10:06.019Z,9.70
2023-03-12T04:12:32.503Z,11.20
2023-03-12T04:14:58.967Z,9.18
2023-03-12T04:17:25.480Z,9.45
2023-03-12T04:19:51.935Z,10.07
2023-03-12T04:22:18.316Z,10.15
2023-03-12T04:24:44.822Z,10.07
2023-03-12T04:27:11.302Z,12.68
2023-03-12T04:29:39.239Z,8.05
2023-03-12T04:32:06.442Z,10.13
2023-03-12T04:34:32.877Z,9.55
2023-03-12T04:37:01.240Z,11.30
2023-03-12T04:39:27.713Z,9.63
2023-03-12T04:41:54.171Z,12.35
2023-03-12T04:44:20.643Z,13.57
2023-03-12T04:46:47.248Z,15.30
2023-03-12T04:49:13.692Z,11.30
2023-03-12T04:51:40.176Z,9.23
2023-03-12T04:54:06.664Z,8.82
2023-03-12T04:56:33.244Z,10.48
2023-03-12T04:58:59.776Z,11.95
2023-03-12T05:01:29.191Z,10.17
2023-03-12T05:03:55.988Z,9.20
2023-03-12T05:06:23.576Z,8.45
2023-03-12T05:08:50.405Z,11.98
2023-03-12T05:11:17.630Z,9.43
2023-03-12T05:13:44.379Z,10.20
2023-03-12T05:16:12.087Z,9.75
2023-03-12T05:18:39.017Z,9.30
2023-03-12T05:21:09.301Z,8.52
2023-03-12T05:23:36.684Z,8.77
2023-03-12T05:26:03.172Z,9.17
2023-03-12T05:28:29.642Z,10.20
2023-03-12T05:30:59.906Z,7.85
2023-03-12T05:33:28.213Z,12.95
2023-03-12T05:35:54.792Z,8.60
2023-03-12T05:38:21.260Z,9.27
2023-03-12T05:40:53.256Z,6.97
2023-03-12T05:43:19.800Z,6.93
2023-03-12T05:45:46.596Z,6.75
2023-03-12T05:48:13.236Z,5.65
2023-03-12T05:50:39.684Z,7.40
2023-03-12T05:53:06.188Z,5.68
2023-03-12T05:55:39.572Z,6.70
2023-03-12T05:58:07.733Z,8.07
2023-03-12T06:00:37.930Z,7.40
2023-03-12T06:03:05.495Z,7.73
2023-03-12T06:05:33.353Z,5.72
2023-03-12T06:08:00.780Z,5.90
2023-03-12T06:10:28.102Z,5.22
2023-03-12T06:12:54.777Z,6.68
2023-03-12T06:15:21.460Z,4.97
2023-03-12T06:17:48.009Z,6.57
2023-03-12T06:20:14.625Z,6.97
2023-03-12T06:22:41.119Z,7.55
2023-03-12T06:25:07.891Z,6.35
2023-03-12T06:27:34.322Z,6.70
2023-03-12T06:30:00.777Z,7.15
2023-03-12T06:32:27.335Z,9.07
2023-03-12T06:34:53.863Z,7.32
2023-03-12T06:37:20.355Z,7.10
2023-03-12T06:39:47.010Z,5.93
2023-03-12T06:42:14.776Z,5.03
2023-03-12T06:44:41.207Z,3.85
2023-03-12T06:47:07.664Z,6.90
2023-03-12T06:49:35.678Z,6.18
2023-03-12T06:52:02.140Z,5.50
2023-03-12T06:54:28.953Z,28.05
2023-03-12T06:56:55.501Z,7.85
2023-03-12T06:59:22.177Z,5.63
2023-03-12T07:01:49.407Z,7.85
2023-03-12T07:04:15.996Z,7.17
2023-03-12T07:06:42.495Z,8.68
2023-03-12T07:09:09.777Z,6.90
2023-03-12T07:11:36.228Z,9.00
2023-03-12T07:14:02.721Z,8.18
2023-03-12T07:16:30.226Z,5.23
2023-03-12T07:18:56.802Z,6.10
2023-03-12T07:21:23.731Z,6.72
2023-03-12T07:23:51.477Z,6.97
2023-03-12T07:26:18.161Z,9.48
2023-03-12T07:28:44.973Z,8.07
2023-03-12T07:31:11.575Z,6.93
2023-03-12T07:33:38.945Z,8.27
2023-03-12T07:36:05.944Z,8.13
2023-03-12T07:38:32.489Z,9.38
2023-03-12T07:41:00.375Z,10.50
2023-03-12T07:43:27.181Z,10.20
2023-03-12T07:45:53.674Z,7.72
2023-03-12T07:48:20.331Z,4.95
2023-03-12T07:50:47.693Z,7.10
2023-03-12T07:53:14.468Z,11.40
2023-03-12T07:55:44.675Z,8.35
2023-03-12T07:58:12.920Z,5.90
2023-03-12T08:00:39.570Z,9.27
2023-03-12T08:03:06.248Z,11.63
2023-03-12T08:05:32.863Z,9.03
2023-03-12T08:07:59.387Z,8.77
2023-03-12T08:10:28.587Z,8.82
2023-03-12T08:12:55.075Z,8.07
2023-03-12T08:15:21.658Z,7.72
2023-03-12T08:17:48.293Z,7.70
2023-03-12T08:20:14.902Z,9.75
2023-03-12T08:22:41.409Z,6.85
2023-03-12T08:25:08.672Z,8.50
2023-03-12T08:27:35.750Z,6.63
2023-03-12T08:30:02.355Z,14.30
2023-03-12T08:32:28.948Z,9.30
2023-03-12T08:34:55.558Z,7.55
2023-03-12T08:37:23.187Z,6.88
2023-03-12T08:39:49.650Z,7.13
2023-03-12T08:42:16.084Z,8.60
2023-03-12T08:44:42.544Z,7.78
2023-03-12T08:47:08.987Z,7.28
2023-03-12T08:49:35.408Z,7.03
2023-03-12T08:52:02.080Z,6.95
2023-03-12T08:54:28.513Z,4.80
2023-03-12T08:56:54.982Z,6.50
2023-03-12T08:59:22.329Z,7.05
2023-03-12T09:01:49.160Z,5.40
2023-03-12T09:04:16.400Z,4.85
2023-03-12T09:06:43.274Z,3.93
2023-03-12T09:09:09.826Z,4.72
2023-03-12T09:11:39.765Z,3.67
2023-03-12T09:16:52.971Z,5.00
2023-03-12T09:19:20.582Z,5.30
2023-03-12T09:21:47.141Z,6.30
2023-03-12T09:24:13.856Z,7.72
2023-03-12T09:26:40.656Z,7.18
2023-03-12T09:29:07.166Z,5.43
2023-03-12T09:31:34.614Z,10.63
2023-03-12T09:34:01.116Z,6.53
2023-03-12T09:36:27.567Z,8.88
2023-03-12T09:38:54.672Z,9.93
2023-03-12T09:41:25.691Z,7.45
2023-03-12T09:44:24.629Z,7.30
2023-03-12T09:46:54.746Z,7.05
2023-03-12T09:49:40.910Z,6.72
2023-03-12T09:52:27.846Z,8.25
2023-03-12T09:55:07.998Z,7.65
2023-03-12T09:57:34.743Z,8.63
2023-03-12T10:00:01.433Z,6.65
2023-03-12T10:03:03.814Z,7.10
2023-03-12T10:05:33.138Z,8.73
2023-03-12T10:08:23.360Z,46.33
2023-03-12T10:10:58.863Z,51.00
2023-03-12T10:13:43.813Z,12.23
2023-03-12T10:16:19.100Z,12.32
2023-03-12T10:18:56.042Z,12.00
2023-03-12T10:21:35.484Z,9.27
2023-03-12T10:24:11.473Z,8.90
2023-03-12T10:26:45.783Z,8.77
2023-03-12T10:29:26.708Z,10.75
2023-03-12T10:32:11.045Z,10.95
2023-03-12T10:34:46.829Z,12.27
2023-03-12T10:37:22.603Z,10.53
2023-03-12T10:39:50.085Z,11.82
2023-03-12T10:42:22.203Z,14.13
2023-03-12T10:44:52.331Z,13.10
2023-03-12T10:47:37.679Z,13.48
2023-03-12T10:50:21.006Z,12.80
2023-03-12T10:52:50.699Z,9.77
2023-03-12T10:55:21.874Z,11.45
2023-03-12T10:57:49.293Z,12.30
2023-03-12T11:00:33.945Z,14.40
2023-03-12T11:03:04.361Z,12.93
2023-03-12T11:05:37.139Z,13.48
2023-03-12T11:08:04.769Z,14.80
2023-03-12T11:10:43.508Z,14.27
2023-03-12T11:13:41.743Z,14.38
2023-03-12T11:16:17.262Z,13.60
2023-03-12T11:19:05.077Z,9.38
2023-03-12T11:21:36.988Z,13.27
2023-03-12T11:24:07.693Z,12.82
2023-03-12T11:26:36.951Z,12.90
2023-03-12T11:29:39.788Z,21.87
2023-03-12T11:32:17.636Z,12.07
2023-03-12T11:34:49.458Z,8.43
2023-03-12T11:37:35.705Z,7.53
2023-03-12T11:40:13.480Z,8.00
2023-03-12T11:43:32.531Z,7.63
2023-03-12T11:46:25.178Z,6.38
2023-03-12T11:48:57.591Z,6.10
2023-03-12T11:51:52.010Z,6.70
2023-03-12T11:54:52.383Z,7.38
2023-03-12T11:57:37.704Z,8.13
2023-03-12T12:00:17.540Z,10.27
2023-03-12T12:03:09.383Z,7.55
2023-03-12T12:05:57.401Z,7.07
2023-03-12T12:08:42.684Z,8.77
2023-03-12T12:11:31.487Z,8.60
2023-03-12T12:14:11.815Z,9.60
2023-03-12T12:16:44.288Z,6.18
2023-03-12T12:19:18.867Z,8.15
2023-03-12T12:22:09.581Z,8.10
2023-03-12T12:24:54.816Z,7.90
2023-03-12T12:27:28.504Z,6.30
2023-03-12T12:30:32.746Z,9.50
2023-03-12T12:33:35.475Z,9.45
2023-03-12T12:36:02.707Z,8.63
2023-03-12T12:38:36.627Z,8.53
2023-03-12T12:41:17.973Z,14.57
2023-03-12T12:43:49.318Z,7.97
2023-03-12T12:46:19.912Z,6.68
2023-03-12T12:49:14.797Z,8.90
2023-03-12T12:51:46.143Z,7.27
2023-03-12T12:54:20.202Z,8.00
2023-03-12T12:56:58.822Z,7.40
2023-03-12T12:59:50.663Z,10.57
2023-03-12T13:02:28.754Z,13.00
2023-03-12T13:04:58.304Z,7.90
2023-03-12T13:07:27.603Z,11.57
2023-03-12T13:09:58.902Z,7.90
2023-03-12T13:12:25.332Z,8.35
2023-03-12T13:14:54.830Z,10.25
2023-03-12T13:17:33.004Z,8.43
2023-03-12T13:20:11.060Z,13.48
2023-03-12T13:23:02.169Z,11.70
2023-03-12T13:25:55.931Z,9.10
2023-03-12T13:28:32.743Z,11.18
2023-03-12T13:31:01.206Z,14.37
2023-03-12T13:33:48.730Z,11.52
2023-03-12T13:36:15.163Z,10.23
2023-03-12T13:38:56.912Z,10.18
2023-03-12T13:41:32.186Z,9.02
2023-03-12T13:43:59.388Z,9.93
2023-03-12T13:46:39.231Z,18.20
2023-03-12T13:49:11.352Z,11.25
2023-03-12T13:52:07.179Z,11.15
2023-03-12T13:54:35.636Z,13.00
2023-03-12T13:57:12.137Z,14.47
2023-03-12T13:59:45.164Z,12.20
2023-03-12T14:02:31.760Z,11.77
2023-03-12T14:05:11.043Z,11.93
2023-03-12T14:07:54.106Z,10.50
2023-03-12T14:10:42.001Z,11.83
2023-03-12T14:13:11.428Z,8.90
2023-03-12T14:15:56.683Z,8.95
2023-03-12T14:18:26.821Z,7.82
2023-03-12T14:20:59.040Z,12.57
2023-03-12T14:23:30.229Z,9.83
2023-03-12T14:26:04.181Z,11.02
2023-03-12T14:28:34.734Z,9.15
2023-03-12T14:31:05.481Z,10.82
2023-03-12T14:33:58.584Z,12.77
2023-03-12T14:36:32.070Z,12.53
2023-03-12T14:39:10.780Z,10.25
2023-03-12T14:41:45.752Z,198.48
2023-03-12T14:44:26.255Z,221.95
2023-03-12T14:47:10.073Z,81.18
2023-03-12T14:49:46.129Z,23.47
2023-03-12T14:52:24.691Z,51.33
2023-03-12T14:55:07.617Z,9.90
2023-03-12T14:57:34.844Z,9.32
2023-03-12T15:00:01.787Z,9.88
2023-03-12T15:02:30.906Z,7.90
2023-03-12T15:05:00.574Z,27.75
2023-03-12T15:07:37.558Z,14.60
2023-03-12T15:10:17.643Z,27.60
2023-03-12T15:12:46.066Z,10.45
2023-03-12T15:15:36.924Z,7.80
2023-03-12T15:18:25.672Z,10.60
2023-03-12T15:20:57.130Z,17.33
2023-03-12T15:23:25.640Z,20.08
2023-03-12T15:26:29.321Z,11.20
2023-03-12T15:29:27.905Z,11.77
2023-03-12T15:31:57.843Z,13.70
2023-03-12T15:34:34.918Z,22.55
2023-03-12T15:37:21.191Z,9.00
2023-03-12T15:39:50.946Z,8.77
2023-03-12T15:42:21.372Z,7.90
2023-03-12T15:44:51.970Z,9.43
2023-03-12T15:47:21.573Z,9.13
2023-03-12T15:49:56.896Z,12.52
2023-03-12T15:52:28.451Z,14.95
2023-03-12T15:55:12.781Z,11.73
2023-03-12T15:57:46.771Z,12.48
2023-03-12T16:00:20.021Z,11.23
2023-03-12T16:02:59.961Z,11.20
2023-03-12T16:05:29.916Z,13.73
2023-03-12T16:07:57.149Z,12.50
2023-03-12T16:10:26.997Z,8.25
2023-03-12T16:13:01.357Z,12.05
2023-03-12T16:15:32.540Z,9.13
2023-03-12T16:17:59.122Z,9.05
2023-03-12T16:20:25.957Z,7.83
2023-03-12T16:22:52.445Z,12.20
2023-03-12T16:25:19.265Z,11.18
2023-03-12T16:28:00.374Z,11.23
2023-03-12T16:30:35.787Z,13.75
2023-03-12T16:33:08.288Z,15.83
2023-03-12T16:35:35.516Z,13.90
2023-03-12T16:38:02.488Z,14.57
2023-03-12T16:40:36.828Z,14.80
2023-03-12T16:43:06.643Z,23.17
2023-03-12T16:45:37.133Z,18.10
2023-03-12T16:48:06.611Z,21.45
2023-03-12T16:50:33.135Z,23.73
2023-03-12T16:52:59.839Z,27.40
2023-03-12T16:55:30.286Z,21.27
2023-03-12T16:58:01.120Z,16.27
2023-03-12T17:00:30.285Z,22.50
2023-03-12T17:02:58.054Z,18.50
2023-03-12T17:05:29.732Z,15.38
2023-03-12T17:07:57.381Z,24.17
2023-03-12T17:10:25.755Z,23.70
2023-03-12T17:12:53.680Z,24.00
2023-03-12T17:15:26.306Z,23.13
2023-03-12T17:17:53.777Z,16.75
2023-03-12T17:20:22.272Z,15.55
2023-03-12T17:22:48.869Z,15.97
2023-03-12T17:25:27.066Z,19.17
2023-03-12T17:27:53.995Z,14.07
2023-03-12T17:30:21.962Z,13.40
2023-03-12T17:32:50.098Z,13.65
2023-03-12T17:35:18.010Z,15.50
2023-03-12T17:37:44.764Z,12.10
2023-03-12T17:40:11.810Z,16.50
2023-03-12T17:42:38.930Z,14.77
2023-03-12T17:45:07.518Z,15.07
2023-03-12T17:47:34.607Z,15.03
2023-03-12T17:50:01.135Z,16.65
2023-03-12T17:52:27.688Z,18.48
2023-03-12T17:54:54.321Z,15.35
2023-03-12T17:57:20.844Z,18.05
2023-03-12T17:59:47.318Z,17.30
2023-03-12T18:02:16.644Z,18.85
2023-03-12T18:04:43.248Z,17.15
2023-03-12T18:07:09.747Z,14.05
2023-03-12T18:09:36.206Z,14.23
2023-03-12T18:12:03.053Z,18.23
2023-03-12T18:14:29.473Z,18.23
2023-03-12T18:16:55.993Z,23.02
2023-03-12T18:19:23.714Z,19.92
2023-03-12T18:21:50.203Z,15.07
2023-03-12T18:24:16.692Z,20.07
2023-03-12T18:26:43.285Z,12.80
2023-03-12T18:29:09.792Z,16.73
2023-03-12T18:31:36.467Z,16.80
2023-03-12T18:34:03.335Z,17.27
2023-03-12T18:36:29.804Z,17.63
2023-03-12T18:38:56.360Z,15.60
2023-03-12T18:41:28.550Z,14.98
2023-03-12T18:43:54.965Z,13.85
2023-03-12T18:46:23.819Z,11.98
2023-03-12T18:48:52.304Z,15.90
2023-03-12T18:51:19.176Z,14.00
2023-03-12T18:53:46.206Z,19.45
2023-03-12T18:56:13.092Z,17.88
2023-03-12T18:58:39.667Z,18.83
2023-03-12T19:01:06.270Z,15.93
2023-03-12T19:03:36.164Z,12.60
2023-03-12T19:06:05.490Z,15.73
2023-03-12T19:08:32.504Z,15.20
2023-03-12T19:10:59.464Z,17.25
2023-03-12T19:13:26.376Z,15.13
2023-03-12T19:16:00.818Z,10.45
2023-03-12T19:18:28.167Z,18.60
2023-03-12T19:20:55.467Z,14.20
2023-03-12T19:23:22.472Z,14.35
2023-03-12T19:25:49.203Z,17.63
2023-03-12T19:28:15.664Z,19.95
2023-03-12T19:30:42.195Z,13.63
2023-03-12T19:33:08.885Z,16.58
2023-03-12T19:35:39.600Z,16.83
2023-03-12T19:38:06.451Z,20.33
2023-03-12T19:40:34.210Z,15.15
2023-03-12T19:43:02.094Z,24.40
2023-03-12T19:45:28.795Z,21.02
2023-03-12T19:47:55.313Z,20.75
2023-03-12T19:50:22.191Z,18.63
2023-03-12T19:52:48.726Z,18.25
2023-03-12T19:55:15.413Z,22.63
2023-03-12T19:57:41.915Z,14.35
2023-03-12T20:00:10.524Z,17.88
2023-03-12T20:02:37.778Z,25.83
2023-03-12T20:05:05.386Z,16.25
2023-03-12T20:07:32.187Z,23.40
2023-03-12T20:09:58.766Z,21.45
2023-03-12T20:12:25.385Z,16.25
2023-03-12T20:14:52.016Z,14.20
2023-03-12T20:17:18.489Z,15.77
2023-03-12T20:19:45.039Z,19.77
2023-03-12T20:22:11.603Z,15.75
2023-03-12T20:24:38.048Z,19.73
2023-03-12T20:27:04.625Z,15.17
2023-03-12T20:29:31.260Z,17.05
2023-03-12T20:31:57.831Z,14.18
2023-03-12T20:34:24.433Z,12.50
2023-03-12T20:36:50.849Z,12.55
2023-03-12T20:39:17.417Z,14.17
2023-03-12T20:41:43.881Z,16.98
2023-03-12T20:44:10.525Z,15.35
2023-03-12T20:46:36.960Z,13.90
2023-03-12T20:49:03.554Z,14.40
2023-03-12T20:51:30.776Z,11.83
2023-03-12T20:53:57.415Z,13.18
2023-03-12T20:56:23.922Z,13.98
2023-03-12T20:58:50.537Z,17.65
2023-03-12T21:01:17.115Z,17.33
2023-03-12T21:03:43.608Z,20.13
2023-03-12T21:06:10.014Z,16.63
2023-03-12T21:08:36.673Z,12.13
2023-03-12T21:11:07.535Z,18.50
2023-03-12T21:13:34.368Z,14.95
2023-03-12T21:16:00.805Z,20.17
2023-03-12T21:18:28.962Z,16.63
2023-03-12T21:21:02.494Z,21.40
2023-03-12T21:23:29.693Z,16.38
2023-03-12T21:26:07.148Z,17.08
2023-03-12T21:28:35.105Z,17.80
2023-03-12T21:31:10.784Z,21.27
2023-03-12T21:33:37.400Z,17.92
2023-03-12T21:36:08.808Z,17.63
2023-03-12T21:38:36.654Z,18.85
2023-03-12T21:41:08.590Z,16.67
2023-03-12T21:43:35.225Z,15.50
2023-03-12T21:46:07.298Z,15.35
2023-03-12T21:48:34.258Z,12.63
2023-03-12T21:51:11.304Z,17.73
2023-03-12T21:53:38.289Z,13.63
2023-03-12T21:56:06.464Z,17.00
2023-03-12T21:58:34.019Z,15.77
2023-03-12T22:01:13.351Z,18.55
2023-03-12T22:03:41.220Z,16.00
2023-03-12T22:06:08.517Z,15.63
2023-03-12T22:08:35.736Z,15.70
2023-03-12T22:11:03.776Z,12.30
2023-03-12T22:13:30.288Z,16.77
2023-03-12T22:16:01.803Z,15.10
2023-03-12T22:18:29.067Z,11.93
2023-03-12T22:21:07.458Z,13.35
2023-03-12T22:23:37.171Z,13.38
2023-03-12T22:26:05.878Z,15.30
2023-03-12T22:28:33.059Z,11.40
2023-03-12T22:31:00.951Z,13.63
2023-03-12T22:33:28.097Z,17.65
2023-03-12T22:35:55.319Z,16.98
2023-03-12T22:38:22.884Z,14.50
2023-03-12T22:40:49.839Z,12.98
2023-03-12T22:43:16.392Z,12.83
2023-03-12T22:45:42.999Z,17.02
2023-03-12T22:48:09.792Z,13.43
2023-03-12T22:50:36.264Z,10.30
2023-03-12T22:53:02.716Z,13.82
2023-03-12T22:55:29.278Z,12.87
2023-03-12T22:57:55.683Z,18.63
2023-03-12T23:00:22.980Z,12.10
2023-03-12T23:02:50.061Z,13.30
2023-03-12T23:05:16.820Z,12.32
2023-03-12T23:07:43.387Z,16.27
2023-03-12T23:10:10.244Z,11.38
2023-03-12T23:12:36.683Z,14.68
2023-03-12T23:15:03.229Z,14.70
2023-03-12T23:17:29.617Z,14.32
2023-03-12T23:19:56.003Z,16.60
2023-03-12T23:22:22.447Z,12.80
2023-03-12T23:24:49.687Z,16.42
2023-03-12T23:27:16.282Z,9.43
2023-03-12T23:29:42.696Z,16.77
2023-03-12T23:32:09.213Z,15.90
2023-03-12T23:34:35.683Z,17.40
2023-03-12T23:37:02.324Z,19.90
2023-03-12T23:39:30.661Z,12.98
2023-03-12T23:41:57.728Z,16.05
2023-03-12T23:44:24.448Z,13.27
2023-03-12T23:46:51.023Z,16.75
2023-03-12T23:49:17.539Z,14.48
2023-03-12T23:51:43.999Z,14.38
2023-03-12T23:54:10.550Z,16.67
2023-03-12T23:56:39.122Z,13.27
2023-03-12T23:59:07.942Z,19.95
